Terminal Aerodrome Forecast
Issued by NWS Pittsburgh, PA

Current Version | Previous Version | Graphics & Text | Print | Product List | Glossary On
Versions: 1 2 3 4 5 6 7 8 9 10 11 12 13 14 15 16 17 18 19 20 21 22 23 24 25 26 27 28 29
000
FTUS41 KPBZ 010540
TAFPIT
TAF
KPIT 010540Z 0106/0212 22005KT P6SM SCT250
     FM010800 22003KT 5SM BR BKN007
      TEMPO 0110/0113 OVC004
     FM011600 27010KT P6SM BKN035
     FM012000 30010KT P6SM SCT040
     FM020000 33004KT P6SM SCT250
     FM020900 VRB03KT 2SM BR SCT250=

USA.gov is the U.S. government's official web portal to all federal, state and local government web resources and services.